sensor_id;sensor_type;location;lat;lon;timestamp;pressure;altitude;pressure_sealevel;temperature;humidity
63190;BME280;49286;44.460;26.114;2023-09-19T00:01:33;100991.59;;;16.68;100.00
63190;BME280;49286;44.460;26.114;2023-09-19T00:03:59;100996.50;;;16.37;100.00
63190;BME280;49286;44.460;26.114;2023-09-19T00:06:28;100993.72;;;16.43;100.00
63190;BME280;49286;44.460;26.114;2023-09-19T00:08:57;100967.13;;;15.91;100.00
63190;BME280;49286;44.460;26.114;2023-09-19T00:11:24;100896.31;;;15.37;100.00
63190;BME280;49286;44.460;26.114;2023-09-19T00:13:51;101036.63;;;16.07;100.00
63190;BME280;49286;44.460;26.114;2023-09-19T00:16:16;100940.22;;;15.53;100.00
63190;BME280;49286;44.460;26.114;2023-09-19T00:18:44;100906.78;;;15.46;100.00
63190;BME280;49286;44.460;26.114;2023-09-19T00:21:09;100996.94;;;16.05;100.00
63190;BME280;49286;44.460;26.114;2023-09-19T00:23:35;100999.91;;;15.79;100.00
63190;BME280;49286;44.460;26.114;2023-09-19T00:26:01;100987.38;;;15.93;100.00
63190;BME280;49286;44.460;26.114;2023-09-19T00:28:27;100864.19;;;14.93;100.00
63190;BME280;49286;44.460;26.114;2023-09-19T00:30:52;100892.25;;;15.08;100.00
63190;BME280;49286;44.460;26.114;2023-09-19T00:33:20;100979.69;;;15.73;100.00
63190;BME280;49286;44.460;26.114;2023-09-19T00:35:49;100977.94;;;15.68;100.00
63190;BME280;49286;44.460;26.114;2023-09-19T00:38:15;100955.06;;;15.65;100.00
63190;BME280;49286;44.460;26.114;2023-09-19T00:40:46;101008.16;;;15.48;100.00
63190;BME280;49286;44.460;26.114;2023-09-19T00:43:11;100998.44;;;15.50;100.00
63190;BME280;49286;44.460;26.114;2023-09-19T00:45:37;100894.25;;;14.83;100.00
63190;BME280;49286;44.460;26.114;2023-09-19T00:48:07;100984.41;;;15.44;100.00
63190;BME280;49286;44.460;26.114;2023-09-19T00:50:35;100905.66;;;14.90;100.00
63190;BME280;49286;44.460;26.114;2023-09-19T00:53:01;100884.56;;;14.87;100.00
63190;BME280;49286;44.460;26.114;2023-09-19T00:55:34;100984.03;;;15.79;100.00
63190;BME280;49286;44.460;26.114;2023-09-19T00:58:00;100953.25;;;15.73;100.00
63190;BME280;49286;44.460;26.114;2023-09-19T01:00:26;100852.38;;;15.27;100.00
63190;BME280;49286;44.460;26.114;2023-09-19T01:02:51;100971.19;;;15.42;100.00
63190;BME280;49286;44.460;26.114;2023-09-19T01:05:17;100967.03;;;15.18;100.00
63190;BME280;49286;44.460;26.114;2023-09-19T01:07:43;100979.47;;;15.07;100.00
63190;BME280;49286;44.460;26.114;2023-09-19T01:10:15;101005.03;;;15.08;100.00
63190;BME280;49286;44.460;26.114;2023-09-19T01:12:54;100933.16;;;14.70;100.00
63190;BME280;49286;44.460;26.114;2023-09-19T01:17:53;100989.09;;;15.14;100.00
63190;BME280;49286;44.460;26.114;2023-09-19T01:20:53;100983.84;;;15.11;100.00
63190;BME280;49286;44.460;26.114;2023-09-19T01:23:35;100947.06;;;14.86;100.00
63190;BME280;49286;44.460;26.114;2023-09-19T01:29:01;100972.91;;;15.48;100.00
63190;BME280;49286;44.460;26.114;2023-09-19T01:31:33;100978.97;;;15.56;100.00
63190;BME280;49286;44.460;26.114;2023-09-19T01:34:03;100857.28;;;14.85;100.00
63190;BME280;49286;44.460;26.114;2023-09-19T01:36:36;100860.59;;;15.01;100.00
63190;BME280;49286;44.460;26.114;2023-09-19T01:39:13;100846.66;;;14.88;100.00
63190;BME280;49286;44.460;26.114;2023-09-19T01:42:01;100971.03;;;15.54;100.00
63190;BME280;49286;44.460;26.114;2023-09-19T01:47:23;100861.56;;;14.95;100.00
63190;BME280;49286;44.460;26.114;2023-09-19T01:50:17;100979.03;;;15.51;100.00
63190;BME280;49286;44.460;26.114;2023-09-19T01:52:53;100960.66;;;15.40;100.00
63190;BME280;49286;44.460;26.114;2023-09-19T01:55:20;100646.66;;;13.20;100.00
63190;BME280;49286;44.460;26.114;2023-09-19T01:58:08;100973.28;;;15.11;100.00
63190;BME280;49286;44.460;26.114;2023-09-19T02:00:41;100960.50;;;14.62;100.00
63190;BME280;49286;44.460;26.114;2023-09-19T02:03:09;100882.66;;;13.93;100.00
63190;BME280;49286;44.460;26.114;2023-09-19T02:05:35;100964.97;;;14.46;100.00
63190;BME280;49286;44.460;26.114;2023-09-19T02:08:02;100990.28;;;14.79;100.00
63190;BME280;49286;44.460;26.114;2023-09-19T02:10:29;100940.16;;;14.73;100.00
63190;BME280;49286;44.460;26.114;2023-09-19T02:12:54;100992.78;;;14.99;100.00
63190;BME280;49286;44.460;26.114;2023-09-19T02:15:20;100955.22;;;14.62;100.00
63190;BME280;49286;44.460;26.114;2023-09-19T02:17:45;100946.31;;;14.75;100.00
63190;BME280;49286;44.460;26.114;2023-09-19T02:20:12;100898.31;;;14.19;100.00
63190;BME280;49286;44.460;26.114;2023-09-19T02:22:38;100910.75;;;13.97;100.00
63190;BME280;49286;44.460;26.114;2023-09-19T02:25:04;100938.78;;;14.15;100.00
63190;BME280;49286;44.460;26.114;2023-09-19T02:27:30;100961.38;;;14.61;100.00
63190;BME280;49286;44.460;26.114;2023-09-19T02:29:56;100952.41;;;14.82;100.00
63190;BME280;49286;44.460;26.114;2023-09-19T02:32:21;100991.00;;;15.01;100.00
63190;BME280;49286;44.460;26.114;2023-09-19T02:34:48;100945.59;;;14.47;100.00
63190;BME280;49286;44.460;26.114;2023-09-19T02:37:14;101003.59;;;14.67;100.00
63190;BME280;49286;44.460;26.114;2023-09-19T02:39:41;100967.59;;;14.55;100.00
63190;BME280;49286;44.460;26.114;2023-09-19T02:42:07;101000.78;;;14.91;100.00
63190;BME280;49286;44.460;26.114;2023-09-19T02:44:32;100788.59;;;13.81;100.00
63190;BME280;49286;44.460;26.114;2023-09-19T02:46:59;100972.47;;;15.03;100.00
63190;BME280;49286;44.460;26.114;2023-09-19T02:49:24;100879.56;;;14.50;100.00
63190;BME280;49286;44.460;26.114;2023-09-19T02:51:50;100974.25;;;15.01;100.00
63190;BME280;49286;44.460;26.114;2023-09-19T02:54:16;100910.75;;;13.99;100.00
63190;BME280;49286;44.460;26.114;2023-09-19T02:56:45;100930.00;;;14.13;100.00
63190;BME280;49286;44.460;26.114;2023-09-19T02:59:10;100945.63;;;14.44;100.00
63190;BME280;49286;44.460;26.114;2023-09-19T03:01:36;100896.56;;;14.17;100.00
63190;BME280;49286;44.460;26.114;2023-09-19T03:04:04;100957.97;;;14.42;100.00
63190;BME280;49286;44.460;26.114;2023-09-19T03:06:33;100816.94;;;13.51;100.00
63190;BME280;49286;44.460;26.114;2023-09-19T03:08:59;100671.41;;;12.97;100.00
63190;BME280;49286;44.460;26.114;2023-09-19T03:11:25;100984.00;;;14.94;100.00
63190;BME280;49286;44.460;26.114;2023-09-19T03:13:54;100948.00;;;14.81;100.00
63190;BME280;49286;44.460;26.114;2023-09-19T03:16:20;100916.50;;;14.59;100.00
63190;BME280;49286;44.460;26.114;2023-09-19T03:18:50;100982.47;;;14.68;100.00
63190;BME280;49286;44.460;26.114;2023-09-19T03:21:16;100991.47;;;14.32;100.00
63190;BME280;49286;44.460;26.114;2023-09-19T03:23:43;100964.25;;;14.22;100.00
63190;BME280;49286;44.460;26.114;2023-09-19T03:26:12;100853.84;;;13.55;100.00
63190;BME280;49286;44.460;26.114;2023-09-19T03:28:38;100959.09;;;13.99;100.00
63190;BME280;49286;44.460;26.114;2023-09-19T03:31:05;100886.38;;;13.49;100.00
63190;BME280;49286;44.460;26.114;2023-09-19T03:33:31;100972.31;;;13.94;100.00
63190;BME280;49286;44.460;26.114;2023-09-19T03:35:58;100893.44;;;13.41;100.00
63190;BME280;49286;44.460;26.114;2023-09-19T03:38:25;100892.41;;;13.69;100.00
63190;BME280;49286;44.460;26.114;2023-09-19T03:40:51;101002.81;;;14.54;100.00
63190;BME280;49286;44.460;26.114;2023-09-19T03:43:16;101001.00;;;14.61;100.00
63190;BME280;49286;44.460;26.114;2023-09-19T03:45:42;100994.81;;;14.65;100.00
63190;BME280;49286;44.460;26.114;2023-09-19T03:48:11;100984.31;;;14.59;100.00
63190;BME280;49286;44.460;26.114;2023-09-19T03:50:37;100983.38;;;14.66;100.00
63190;BME280;49286;44.460;26.114;2023-09-19T03:53:02;100859.66;;;14.09;100.00
63190;BME280;49286;44.460;26.114;2023-09-19T03:55:28;100971.94;;;14.62;100.00
63190;BME280;49286;44.460;26.114;2023-09-19T03:57:55;100978.19;;;14.44;100.00
63190;BME280;49286;44.460;26.114;2023-09-19T04:00:21;100961.75;;;13.96;100.00
63190;BME280;49286;44.460;26.114;2023-09-19T04:02:51;100884.69;;;13.31;100.00
63190;BME280;49286;44.460;26.114;2023-09-19T04:05:17;100920.56;;;13.72;100.00
63190;BME280;49286;44.460;26.114;2023-09-19T04:07:42;101002.78;;;14.51;100.00
63190;BME280;49286;44.460;26.114;2023-09-19T04:10:08;100880.03;;;13.85;100.00
63190;BME280;49286;44.460;26.114;2023-09-19T04:12:37;100892.53;;;13.43;100.00
63190;BME280;49286;44.460;26.114;2023-09-19T04:15:04;100995.16;;;13.97;100.00
63190;BME280;49286;44.460;26.114;2023-09-19T04:17:33;100906.66;;;13.32;100.00
63190;BME280;49286;44.460;26.114;2023-09-19T04:19:59;100999.56;;;13.95;100.00
63190;BME280;49286;44.460;26.114;2023-09-19T04:22:24;100879.44;;;13.28;100.00
63190;BME280;49286;44.460;26.114;2023-09-19T04:24:50;100884.59;;;13.52;100.00
63190;BME280;49286;44.460;26.114;2023-09-19T04:27:15;100906.50;;;13.68;100.00
63190;BME280;49286;44.460;26.114;2023-09-19T04:29:41;100993.09;;;14.53;100.00
63190;BME280;49286;44.460;26.114;2023-09-19T04:32:09;100907.09;;;14.21;100.00
63190;BME280;49286;44.460;26.114;2023-09-19T04:34:35;100971.91;;;14.65;100.00
63190;BME280;49286;44.460;26.114;2023-09-19T04:37:01;100957.00;;;14.61;100.00
63190;BME280;49286;44.460;26.114;2023-09-19T04:39:27;100947.47;;;14.35;100.00
63190;BME280;49286;44.460;26.114;2023-09-19T04:41:53;100945.66;;;14.42;100.00
63190;BME280;49286;44.460;26.114;2023-09-19T04:44:20;100980.63;;;14.78;100.00
63190;BME280;49286;44.460;26.114;2023-09-19T04:46:46;100958.69;;;14.68;100.00
63190;BME280;49286;44.460;26.114;2023-09-19T04:49:11;100907.72;;;14.52;100.00
63190;BME280;49286;44.460;26.114;2023-09-19T04:51:37;100867.59;;;14.06;100.00
63190;BME280;49286;44.460;26.114;2023-09-19T04:54:05;100930.56;;;14.61;100.00
63190;BME280;49286;44.460;26.114;2023-09-19T04:56:31;100926.75;;;14.93;100.00
63190;BME280;49286;44.460;26.114;2023-09-19T04:58:57;100940.78;;;15.01;100.00
63190;BME280;49286;44.460;26.114;2023-09-19T05:01:24;100889.03;;;14.77;100.00
63190;BME280;49286;44.460;26.114;2023-09-19T05:03:50;100953.66;;;15.33;100.00
63190;BME280;49286;44.460;26.114;2023-09-19T05:06:19;100852.91;;;14.79;100.00
63190;BME280;49286;44.460;26.114;2023-09-19T05:08:48;100950.75;;;15.58;100.00
63190;BME280;49286;44.460;26.114;2023-09-19T05:11:21;100954.97;;;15.73;100.00
63190;BME280;49286;44.460;26.114;2023-09-19T05:13:48;100926.13;;;15.53;100.00
63190;BME280;49286;44.460;26.114;2023-09-19T05:16:16;100944.63;;;15.53;100.00
63190;BME280;49286;44.460;26.114;2023-09-19T05:18:41;100822.81;;;14.92;100.00
63190;BME280;49286;44.460;26.114;2023-09-19T05:21:07;100927.75;;;15.61;100.00
63190;BME280;49286;44.460;26.114;2023-09-19T05:23:33;100926.78;;;15.73;100.00
63190;BME280;49286;44.460;26.114;2023-09-19T05:25:59;100823.94;;;15.44;100.00
63190;BME280;49286;44.460;26.114;2023-09-19T05:28:25;100886.00;;;15.88;100.00
63190;BME280;49286;44.460;26.114;2023-09-19T05:30:52;100833.78;;;15.98;100.00
63190;BME280;49286;44.460;26.114;2023-09-19T05:33:19;100828.78;;;16.34;100.00
63190;BME280;49286;44.460;26.114;2023-09-19T05:35:47;100927.25;;;17.57;100.00
63190;BME280;49286;44.460;26.114;2023-09-19T05:38:13;100820.19;;;17.59;100.00
63190;BME280;49286;44.460;26.114;2023-09-19T05:40:40;100908.53;;;18.80;100.00
63190;BME280;49286;44.460;26.114;2023-09-19T05:43:08;100811.78;;;18.51;100.00
63190;BME280;49286;44.460;26.114;2023-09-19T05:45:34;100906.38;;;19.88;100.00
63190;BME280;49286;44.460;26.114;2023-09-19T05:48:10;100886.69;;;20.21;100.00
63190;BME280;49286;44.460;26.114;2023-09-19T05:50:37;100819.19;;;20.21;100.00
63190;BME280;49286;44.460;26.114;2023-09-19T05:53:02;100908.81;;;20.78;100.00
63190;BME280;49286;44.460;26.114;2023-09-19T05:55:29;100894.44;;;20.82;100.00
63190;BME280;49286;44.460;26.114;2023-09-19T05:57:55;100887.59;;;20.49;100.00
63190;BME280;49286;44.460;26.114;2023-09-19T06:00:23;100817.31;;;19.96;100.00
63190;BME280;49286;44.460;26.114;2023-09-19T06:02:51;100894.88;;;20.15;100.00
63190;BME280;49286;44.460;26.114;2023-09-19T06:05:18;100886.34;;;20.04;100.00
63190;BME280;49286;44.460;26.114;2023-09-19T06:07:44;100792.94;;;18.60;100.00
63190;BME280;49286;44.460;26.114;2023-09-19T06:10:12;100787.91;;;19.13;100.00
63190;BME280;49286;44.460;26.114;2023-09-19T06:12:38;100876.63;;;20.03;100.00
63190;BME280;49286;44.460;26.114;2023-09-19T06:15:05;100868.47;;;19.79;100.00
63190;BME280;49286;44.460;26.114;2023-09-19T06:17:31;100880.56;;;19.90;100.00
63190;BME280;49286;44.460;26.114;2023-09-19T06:19:57;100785.84;;;19.53;100.00
63190;BME280;49286;44.460;26.114;2023-09-19T06:22:23;100885.69;;;19.66;100.00
63190;BME280;49286;44.460;26.114;2023-09-19T06:24:49;100876.44;;;19.18;100.00
63190;BME280;49286;44.460;26.114;2023-09-19T06:27:16;100868.66;;;19.42;100.00
63190;BME280;49286;44.460;26.114;2023-09-19T06:29:42;100799.91;;;19.56;100.00
63190;BME280;49286;44.460;26.114;2023-09-19T06:32:10;100876.28;;;19.86;100.00
63190;BME280;49286;44.460;26.114;2023-09-19T06:34:36;100828.78;;;19.72;100.00
63190;BME280;49286;44.460;26.114;2023-09-19T06:37:04;100861.56;;;19.74;100.00
63190;BME280;49286;44.460;26.114;2023-09-19T06:39:31;100849.34;;;19.35;100.00
63190;BME280;49286;44.460;26.114;2023-09-19T06:41:57;100862.81;;;19.90;100.00
63190;BME280;49286;44.460;26.114;2023-09-19T06:44:23;100760.69;;;19.33;100.00
63190;BME280;49286;44.460;26.114;2023-09-19T06:46:50;100824.00;;;19.83;100.00
63190;BME280;49286;44.460;26.114;2023-09-19T06:49:17;100801.84;;;19.81;100.00
63190;BME280;49286;44.460;26.114;2023-09-19T06:51:42;100841.34;;;20.23;100.00
63190;BME280;49286;44.460;26.114;2023-09-19T06:54:09;100861.72;;;20.24;100.00
63190;BME280;49286;44.460;26.114;2023-09-19T06:56:35;100738.97;;;19.77;100.00
63190;BME280;49286;44.460;26.114;2023-09-19T06:59:00;100838.00;;;20.16;100.00
63190;BME280;49286;44.460;26.114;2023-09-19T07:01:29;100867.91;;;20.24;100.00
63190;BME280;49286;44.460;26.114;2023-09-19T07:03:54;100755.66;;;19.52;100.00
63190;BME280;49286;44.460;26.114;2023-09-19T07:06:20;100784.59;;;19.65;100.00
63190;BME280;49286;44.460;26.114;2023-09-19T07:08:46;100838.38;;;20.04;100.00
63190;BME280;49286;44.460;26.114;2023-09-19T07:11:11;100867.78;;;20.29;100.00
63190;BME280;49286;44.460;26.114;2023-09-19T07:13:38;100826.81;;;20.32;100.00
63190;BME280;49286;44.460;26.114;2023-09-19T07:16:04;100844.16;;;20.18;100.00
63190;BME280;49286;44.460;26.114;2023-09-19T07:18:30;100828.25;;;20.15;100.00
63190;BME280;49286;44.460;26.114;2023-09-19T07:20:58;100865.03;;;20.59;100.00
63190;BME280;49286;44.460;26.114;2023-09-19T07:23:30;100862.38;;;20.59;100.00
63190;BME280;49286;44.460;26.114;2023-09-19T07:26:01;100863.69;;;20.72;100.00
63190;BME280;49286;44.460;26.114;2023-09-19T07:28:26;100778.09;;;20.01;100.00
63190;BME280;49286;44.460;26.114;2023-09-19T07:30:53;100856.09;;;20.86;100.00
63190;BME280;49286;44.460;26.114;2023-09-19T07:33:19;100828.41;;;20.89;100.00
63190;BME280;49286;44.460;26.114;2023-09-19T07:35:47;100830.56;;;20.79;100.00
63190;BME280;49286;44.460;26.114;2023-09-19T07:38:13;100766.59;;;20.26;100.00
63190;BME280;49286;44.460;26.114;2023-09-19T07:40:39;100821.56;;;20.82;100.00
63190;BME280;49286;44.460;26.114;2023-09-19T07:43:05;100841.84;;;20.86;100.00
63190;BME280;49286;44.460;26.114;2023-09-19T07:45:32;100749.97;;;20.44;100.00
63190;BME280;49286;44.460;26.114;2023-09-19T07:47:58;100828.94;;;20.49;100.00
63190;BME280;49286;44.460;26.114;2023-09-19T07:50:25;100801.00;;;20.60;100.00
63190;BME280;49286;44.460;26.114;2023-09-19T07:52:52;100832.13;;;20.85;100.00
63190;BME280;49286;44.460;26.114;2023-09-19T07:55:18;100797.78;;;20.76;100.00
63190;BME280;49286;44.460;26.114;2023-09-19T07:57:45;100730.03;;;20.55;100.00
63190;BME280;49286;44.460;26.114;2023-09-19T08:00:11;100759.84;;;20.68;100.00
63190;BME280;49286;44.460;26.114;2023-09-19T08:02:37;100835.41;;;21.17;100.00
63190;BME280;49286;44.460;26.114;2023-09-19T08:05:07;100820.31;;;21.16;100.00
63190;BME280;49286;44.460;26.114;2023-09-19T08:07:40;100830.53;;;21.52;100.00
63190;BME280;49286;44.460;26.114;2023-09-19T08:10:07;100840.50;;;21.23;100.00
63190;BME280;49286;44.460;26.114;2023-09-19T08:12:34;100828.56;;;21.33;100.00
63190;BME280;49286;44.460;26.114;2023-09-19T08:15:02;100822.03;;;21.42;100.00
63190;BME280;49286;44.460;26.114;2023-09-19T08:17:28;100798.63;;;21.01;100.00
63190;BME280;49286;44.460;26.114;2023-09-19T08:19:53;100756.69;;;20.81;100.00
63190;BME280;49286;44.460;26.114;2023-09-19T08:22:21;100726.63;;;20.76;100.00
63190;BME280;49286;44.460;26.114;2023-09-19T08:24:48;100717.47;;;20.83;100.00
63190;BME280;49286;44.460;26.114;2023-09-19T08:27:14;100797.00;;;21.44;100.00
63190;BME280;49286;44.460;26.114;2023-09-19T08:29:40;100717.25;;;20.90;100.00
63190;BME280;49286;44.460;26.114;2023-09-19T08:32:07;100725.38;;;20.86;100.00
63190;BME280;49286;44.460;26.114;2023-09-19T08:34:33;100832.50;;;21.23;100.00
63190;BME280;49286;44.460;26.114;2023-09-19T08:36:59;100826.03;;;21.54;100.00
63190;BME280;49286;44.460;26.114;2023-09-19T08:39:25;100822.72;;;21.92;100.00
63190;BME280;49286;44.460;26.114;2023-09-19T08:42:01;100816.16;;;21.56;100.00
63190;BME280;49286;44.460;26.114;2023-09-19T08:44:27;100732.50;;;21.10;100.00
63190;BME280;49286;44.460;26.114;2023-09-19T08:47:07;100811.44;;;21.62;100.00
63190;BME280;49286;44.460;26.114;2023-09-19T08:49:47;100801.25;;;21.72;100.00
63190;BME280;49286;44.460;26.114;2023-09-19T08:52:32;100787.63;;;21.80;100.00
63190;BME280;49286;44.460;26.114;2023-09-19T08:55:02;100807.19;;;22.24;100.00
63190;BME280;49286;44.460;26.114;2023-09-19T08:57:36;100798.75;;;22.11;100.00
63190;BME280;49286;44.460;26.114;2023-09-19T09:00:07;100617.81;;;21.08;100.00
63190;BME280;49286;44.460;26.114;2023-09-19T09:02:38;100793.34;;;22.35;100.00
63190;BME280;49286;44.460;26.114;2023-09-19T09:05:08;100744.56;;;22.30;100.00
63190;BME280;49286;44.460;26.114;2023-09-19T09:07:41;100793.16;;;22.60;100.00
63190;BME280;49286;44.460;26.114;2023-09-19T09:10:07;100704.00;;;22.19;100.00
63190;BME280;49286;44.460;26.114;2023-09-19T09:12:34;100697.88;;;22.37;100.00
63190;BME280;49286;44.460;26.114;2023-09-19T09:15:02;100703.13;;;22.59;100.00
63190;BME280;49286;44.460;26.114;2023-09-19T09:17:29;100727.19;;;22.80;100.00
63190;BME280;49286;44.460;26.114;2023-09-19T09:19:55;100792.16;;;23.23;100.00
63190;BME280;49286;44.460;26.114;2023-09-19T09:22:21;100702.59;;;22.71;100.00
63190;BME280;49286;44.460;26.114;2023-09-19T09:24:58;100802.97;;;22.80;100.00
63190;BME280;49286;44.460;26.114;2023-09-19T09:27:24;100729.09;;;22.57;100.00
63190;BME280;49286;44.460;26.114;2023-09-19T09:29:52;100681.09;;;22.33;100.00
63190;BME280;49286;44.460;26.114;2023-09-19T09:32:27;100771.00;;;23.16;100.00
63190;BME280;49286;44.460;26.114;2023-09-19T09:34:59;100776.38;;;23.16;100.00
63190;BME280;49286;44.460;26.114;2023-09-19T09:37:25;100711.50;;;22.51;100.00
63190;BME280;49286;44.460;26.114;2023-09-19T09:39:56;100788.66;;;23.02;100.00
63190;BME280;49286;44.460;26.114;2023-09-19T09:42:35;100775.19;;;23.22;100.00
63190;BME280;49286;44.460;26.114;2023-09-19T09:45:24;100720.19;;;22.96;100.00
63190;BME280;49286;44.460;26.114;2023-09-19T09:47:59;100783.44;;;23.36;100.00
63190;BME280;49286;44.460;26.114;2023-09-19T09:50:33;100786.88;;;23.40;97.04
63190;BME280;49286;44.460;26.114;2023-09-19T09:53:29;100775.50;;;23.54;96.21
63190;BME280;49286;44.460;26.114;2023-09-19T09:56:07;100711.97;;;23.20;96.60
63190;BME280;49286;44.460;26.114;2023-09-19T09:58:38;100669.69;;;23.26;97.59
63190;BME280;49286;44.460;26.114;2023-09-19T10:01:14;100673.00;;;23.31;95.54
63190;BME280;49286;44.460;26.114;2023-09-19T10:03:42;100740.72;;;23.52;97.03
63190;BME280;49286;44.460;26.114;2023-09-19T10:06:15;100750.38;;;23.56;96.31
63190;BME280;49286;44.460;26.114;2023-09-19T10:09:06;100763.31;;;23.85;83.70
63190;BME280;49286;44.460;26.114;2023-09-19T10:12:06;100759.41;;;24.27;73.27
63190;BME280;49286;44.460;26.114;2023-09-19T10:14:36;100749.28;;;23.79;73.97
63190;BME280;49286;44.460;26.114;2023-09-19T10:17:05;100687.47;;;23.83;72.97
63190;BME280;49286;44.460;26.114;2023-09-19T10:22:12;100751.38;;;24.09;69.15
63190;BME280;49286;44.460;26.114;2023-09-19T10:24:40;100717.69;;;23.31;69.50
63190;BME280;49286;44.460;26.114;2023-09-19T10:27:06;100746.88;;;23.54;69.26
63190;BME280;49286;44.460;26.114;2023-09-19T10:29:39;100737.69;;;24.14;68.68
63190;BME280;49286;44.460;26.114;2023-09-19T10:32:05;100751.53;;;24.23;68.27
63190;BME280;49286;44.460;26.114;2023-09-19T10:34:35;100656.34;;;23.80;70.23
63190;BME280;49286;44.460;26.114;2023-09-19T10:37:02;100594.59;;;23.64;70.05
63190;BME280;49286;44.460;26.114;2023-09-19T10:39:32;100715.22;;;24.51;69.54
63190;BME280;49286;44.460;26.114;2023-09-19T10:42:02;100668.53;;;24.20;71.37
63190;BME280;49286;44.460;26.114;2023-09-19T10:44:32;100658.16;;;23.79;60.39
63190;BME280;49286;44.460;26.114;2023-09-19T10:46:58;100650.03;;;23.98;58.51
63190;BME280;49286;44.460;26.114;2023-09-19T10:49:24;100668.38;;;24.06;56.43
63190;BME280;49286;44.460;26.114;2023-09-19T10:51:56;100719.09;;;23.93;55.55
63190;BME280;49286;44.460;26.114;2023-09-19T10:54:27;100735.31;;;23.90;56.56
63190;BME280;49286;44.460;26.114;2023-09-19T10:56:53;100736.28;;;24.07;56.14
63190;BME280;49286;44.460;26.114;2023-09-19T10:59:21;100727.28;;;24.42;54.23
63190;BME280;49286;44.460;26.114;2023-09-19T11:01:55;100718.66;;;24.71;53.71
63190;BME280;49286;44.460;26.114;2023-09-19T11:04:33;100729.19;;;25.07;53.96
63190;BME280;49286;44.460;26.114;2023-09-19T11:07:08;100733.13;;;25.49;53.46
63190;BME280;49286;44.460;26.114;2023-09-19T11:27:09;100727.53;;;24.55;49.93
63190;BME280;49286;44.460;26.114;2023-09-19T11:29:35;100716.94;;;24.35;50.66
63190;BME280;49286;44.460;26.114;2023-09-19T11:32:03;100729.88;;;24.95;51.21
63190;BME280;49286;44.460;26.114;2023-09-19T11:34:39;100705.63;;;24.96;50.75
63190;BME280;49286;44.460;26.114;2023-09-19T11:39:39;100703.72;;;24.82;49.63
63190;BME280;49286;44.460;26.114;2023-09-19T11:48:13;100679.78;;;25.27;52.39
63190;BME280;49286;44.460;26.114;2023-09-19T11:50:42;100595.97;;;24.89;52.55
63190;BME280;49286;44.460;26.114;2023-09-19T11:53:11;100691.63;;;25.39;53.54
63190;BME280;49286;44.460;26.114;2023-09-19T11:55:38;100692.03;;;25.15;50.96
63190;BME280;49286;44.460;26.114;2023-09-19T11:58:07;100601.34;;;24.57;50.50
63190;BME280;49286;44.460;26.114;2023-09-19T12:00:34;100684.75;;;24.35;52.03
63190;BME280;49286;44.460;26.114;2023-09-19T12:03:08;100629.44;;;24.16;51.51
63190;BME280;49286;44.460;26.114;2023-09-19T12:05:35;100656.72;;;24.91;51.35
63190;BME280;49286;44.460;26.114;2023-09-19T12:08:03;100674.72;;;24.56;50.45
63190;BME280;49286;44.460;26.114;2023-09-19T12:10:29;100682.78;;;24.56;51.59
63190;BME280;49286;44.460;26.114;2023-09-19T12:12:55;100625.50;;;24.73;50.48
63190;BME280;49286;44.460;26.114;2023-09-19T12:15:25;100629.25;;;24.70;49.14
63190;BME280;49286;44.460;26.114;2023-09-19T12:17:59;100592.56;;;24.53;49.25
63190;BME280;49286;44.460;26.114;2023-09-19T12:20:26;100664.41;;;24.97;48.64
63190;BME280;49286;44.460;26.114;2023-09-19T12:23:13;100656.13;;;25.18;48.41
63190;BME280;49286;44.460;26.114;2023-09-19T12:25:45;100659.22;;;25.10;48.73
63190;BME280;49286;44.460;26.114;2023-09-19T12:28:13;100634.41;;;25.05;47.98
63190;BME280;49286;44.460;26.114;2023-09-19T12:30:39;100647.50;;;25.11;48.38
63190;BME280;49286;44.460;26.114;2023-09-19T12:33:19;100620.84;;;25.08;47.53
63190;BME280;49286;44.460;26.114;2023-09-19T12:35:46;100637.28;;;25.02;47.00
63190;BME280;49286;44.460;26.114;2023-09-19T12:38:31;100655.00;;;25.22;46.58
63190;BME280;49286;44.460;26.114;2023-09-19T12:41:01;100642.81;;;24.83;46.61
63190;BME280;49286;44.460;26.114;2023-09-19T12:43:30;100575.06;;;24.46;47.04
63190;BME280;49286;44.460;26.114;2023-09-19T12:45:58;100642.41;;;24.75;46.44
63190;BME280;49286;44.460;26.114;2023-09-19T12:48:25;100627.75;;;24.80;45.81
63190;BME280;49286;44.460;26.114;2023-09-19T12:53:26;100639.44;;;24.95;47.01
63190;BME280;49286;44.460;26.114;2023-09-19T12:56:00;100621.16;;;24.86;46.79
63190;BME280;49286;44.460;26.114;2023-09-19T12:58:26;100612.19;;;25.03;46.51
63190;BME280;49286;44.460;26.114;2023-09-19T13:00:52;100554.41;;;24.48;45.10
63190;BME280;49286;44.460;26.114;2023-09-19T13:03:18;100633.47;;;25.06;45.22
63190;BME280;49286;44.460;26.114;2023-09-19T13:05:59;100540.78;;;24.19;44.67
63190;BME280;49286;44.460;26.114;2023-09-19T13:16:08;100628.59;;;24.65;45.66
63190;BME280;49286;44.460;26.114;2023-09-19T13:18:53;100544.03;;;24.58;45.38
63190;BME280;49286;44.460;26.114;2023-09-19T13:21:34;100633.41;;;25.08;45.79
63190;BME280;49286;44.460;26.114;2023-09-19T13:24:19;100586.59;;;24.96;46.55
63190;BME280;49286;44.460;26.114;2023-09-19T13:26:45;100591.22;;;24.94;45.87
63190;BME280;49286;44.460;26.114;2023-09-19T13:29:11;100527.16;;;24.72;46.03